createdAt,value
2023-05-08T00:00:48.116Z,101233.16
2023-05-08T00:03:19.947Z,101242.94
2023-05-08T00:05:48.957Z,101243.06
2023-05-08T00:08:17.962Z,101248.44
2023-05-08T00:10:52.538Z,101248.50
2023-05-08T00:13:21.921Z,101246.41
2023-05-08T00:15:51.391Z,101231.66
2023-05-08T00:18:23.021Z,101250.75
2023-05-08T00:20:52.451Z,101247.31
2023-05-08T00:23:21.993Z,101255.00
2023-05-08T00:25:56.339Z,101251.31
2023-05-08T00:28:25.646Z,101253.63
2023-05-08T00:30:55.055Z,101247.94
2023-05-08T00:33:26.322Z,101259.97
2023-05-08T00:36:06.462Z,101246.06
2023-05-08T00:38:37.122Z,101255.50
2023-05-08T00:41:06.628Z,101276.19
2023-05-08T00:43:37.308Z,101269.13
2023-05-08T00:46:09.459Z,101276.06
2023-05-08T00:48:42.455Z,101274.19
2023-05-08T00:51:18.210Z,101270.66
2023-05-08T00:53:47.891Z,101277.78
2023-05-08T00:56:24.543Z,101261.47
2023-05-08T00:58:54.354Z,101277.91
2023-05-08T01:01:24.048Z,101266.53
2023-05-08T01:03:56.032Z,101263.84
2023-05-08T01:06:25.444Z,101272.38
2023-05-08T01:08:54.838Z,101260.94
2023-05-08T01:11:33.174Z,101259.69
2023-05-08T01:14:14.036Z,101277.56
2023-05-08T01:16:47.197Z,101281.34
2023-05-08T01:19:53.280Z,101269.69
2023-05-08T01:22:35.745Z,101285.09
2023-05-08T01:25:23.974Z,101275.41
2023-05-08T01:28:37.579Z,101287.97
2023-05-08T01:31:22.934Z,101293.03
2023-05-08T01:34:03.353Z,101293.97
2023-05-08T01:36:40.938Z,101290.34
2023-05-08T01:39:19.990Z,101298.25
2023-05-08T01:41:59.154Z,101291.81
2023-05-08T01:44:35.123Z,101270.00
2023-05-08T01:47:09.533Z,101300.63
2023-05-08T01:49:44.311Z,101292.81
2023-05-08T01:52:20.467Z,101263.22
2023-05-08T01:55:00.937Z,101304.19
2023-05-08T01:57:32.928Z,101307.63
2023-05-08T02:00:04.934Z,101305.94
2023-05-08T02:02:40.002Z,101304.28
2023-05-08T02:05:18.667Z,101297.88
2023-05-08T02:07:51.098Z,101243.81
2023-05-08T02:10:22.517Z,101296.75
2023-05-08T02:12:52.940Z,101310.88
2023-05-08T02:15:24.044Z,101314.41
2023-05-08T02:17:56.375Z,101317.16
2023-05-08T02:20:29.661Z,101316.56
2023-05-08T02:22:59.810Z,101320.34
2023-05-08T02:25:31.278Z,101317.31
2023-05-08T02:28:08.357Z,101326.09
2023-05-08T02:30:38.499Z,101326.03
2023-05-08T02:33:12.270Z,101329.34
2023-05-08T02:35:51.263Z,101330.41
2023-05-08T02:38:23.316Z,101336.50
2023-05-08T02:40:58.997Z,101332.50
2023-05-08T02:46:14.588Z,101344.13
2023-05-08T02:48:53.804Z,101335.09
2023-05-08T02:51:31.151Z,101340.91
2023-05-08T02:54:07.047Z,101341.97
2023-05-08T02:56:40.924Z,101347.22
2023-05-08T02:59:19.532Z,101349.09
2023-05-08T03:01:54.052Z,101348.44
2023-05-08T03:04:32.910Z,101347.72
2023-05-08T03:09:45.129Z,101346.81
2023-05-08T03:12:19.056Z,101347.66
2023-05-08T03:14:56.655Z,101354.47
2023-05-08T03:17:34.451Z,101359.78
2023-05-08T03:20:10.049Z,101364.16
2023-05-08T03:22:45.679Z,101360.94
2023-05-08T03:25:19.183Z,101365.50
2023-05-08T03:27:50.326Z,101363.78
2023-05-08T03:30:21.375Z,101367.63
2023-05-08T03:33:00.409Z,101349.84
2023-05-08T03:35:35.511Z,101372.94
2023-05-08T03:38:07.983Z,101370.44
2023-05-08T03:40:39.591Z,101373.16
2023-05-08T03:43:14.454Z,101366.00
2023-05-08T03:45:55.828Z,101374.69
2023-05-08T03:48:25.605Z,101381.44
2023-05-08T03:50:58.019Z,101370.63
2023-05-08T03:56:07.105Z,101376.56
2023-05-08T03:58:42.778Z,101369.94
2023-05-08T04:01:19.864Z,101390.13
2023-05-08T04:03:58.856Z,101377.47
2023-05-08T04:06:45.812Z,101376.44
2023-05-08T04:09:26.580Z,101382.91
2023-05-08T04:12:05.482Z,101371.69
2023-05-08T04:14:43.384Z,101383.59
2023-05-08T04:17:16.359Z,101385.00
2023-05-08T04:19:53.934Z,101380.22
2023-05-08T04:22:27.580Z,101377.28
2023-05-08T04:25:03.151Z,101381.50
2023-05-08T04:27:35.182Z,101363.59
2023-05-08T04:30:05.260Z,101370.13
2023-05-08T04:32:40.587Z,101368.34
2023-05-08T04:35:17.912Z,101356.50
2023-05-08T04:37:49.213Z,101373.13
2023-05-08T04:40:22.120Z,101369.81
2023-05-08T04:42:51.484Z,101367.25
2023-05-08T04:45:22.236Z,101376.63
2023-05-08T04:47:51.721Z,101363.09
2023-05-08T04:50:21.742Z,101376.88
2023-05-08T04:52:56.151Z,101374.19
2023-05-08T04:55:28.301Z,101359.50
2023-05-08T04:57:57.733Z,101371.34
2023-05-08T05:00:27.303Z,101355.78
2023-05-08T05:02:56.804Z,101352.66
2023-05-08T05:05:26.146Z,101385.66
2023-05-08T05:07:55.477Z,101391.81
2023-05-08T05:10:24.810Z,101386.34
2023-05-08T05:13:01.870Z,101394.09
2023-05-08T05:15:31.909Z,101384.97
2023-05-08T05:18:11.419Z,101392.31
2023-05-08T05:20:42.058Z,101384.34
2023-05-08T05:23:12.227Z,101394.28
2023-05-08T05:25:42.052Z,101396.63
2023-05-08T05:28:19.758Z,101404.56
2023-05-08T05:30:49.952Z,101397.94
2023-05-08T05:33:21.099Z,101400.38
2023-05-08T05:35:50.600Z,101384.94
2023-05-08T05:38:20.347Z,101403.78
2023-05-08T05:40:50.053Z,101389.16
2023-05-08T05:43:21.430Z,101400.47
2023-05-08T05:45:51.012Z,101371.56
2023-05-08T05:48:20.387Z,101388.41
2023-05-08T05:50:49.883Z,101380.81
2023-05-08T05:53:19.473Z,101397.94
2023-05-08T05:55:49.234Z,101382.63
2023-05-08T05:58:21.543Z,101378.25
2023-05-08T06:00:51.564Z,101391.06
2023-05-08T06:03:26.068Z,101398.16
2023-05-08T06:05:56.527Z,101400.50
2023-05-08T06:08:26.654Z,101387.91
2023-05-08T06:10:56.344Z,101385.31
2023-05-08T06:13:34.018Z,101404.63
2023-05-08T06:16:03.683Z,101402.25
2023-05-08T06:18:33.109Z,101407.06
2023-05-08T06:23:47.946Z,101414.72
2023-05-08T06:26:28.597Z,101389.97
2023-05-08T06:28:59.807Z,101408.00
2023-05-08T06:31:29.286Z,101405.59
2023-05-08T06:33:58.755Z,101414.75
2023-05-08T06:36:28.313Z,101409.72
2023-05-08T06:39:02.585Z,101395.09
2023-05-08T06:41:32.011Z,101397.16
2023-05-08T06:44:03.122Z,101406.22
2023-05-08T06:46:32.577Z,101392.22
2023-05-08T06:49:01.965Z,101401.72
2023-05-08T06:51:31.827Z,101408.50
2023-05-08T06:54:01.436Z,101397.66
2023-05-08T06:56:30.912Z,101376.28
2023-05-08T06:59:07.794Z,101370.06
2023-05-08T07:01:45.394Z,101383.91
2023-05-08T07:04:14.818Z,101384.44
2023-05-08T07:06:44.217Z,101378.91
2023-05-08T07:09:14.054Z,101393.03
2023-05-08T07:11:48.401Z,101385.59
2023-05-08T07:14:22.763Z,101377.53
2023-05-08T07:16:54.173Z,101380.94
2023-05-08T07:19:38.370Z,101362.13
2023-05-08T07:22:08.050Z,101376.06
2023-05-08T07:24:38.746Z,101379.00
2023-05-08T07:27:08.266Z,101364.78
2023-05-08T07:29:42.679Z,101378.69
2023-05-08T07:32:15.220Z,101335.22
2023-05-08T07:34:44.628Z,101354.31
2023-05-08T07:37:18.967Z,101373.47
2023-05-08T07:40:01.315Z,101357.78
2023-05-08T07:42:46.511Z,101365.56
2023-05-08T07:45:16.553Z,101374.28
2023-05-08T07:47:55.809Z,101365.16
2023-05-08T07:50:26.807Z,101364.50
2023-05-08T07:52:56.191Z,101361.19
2023-05-08T07:55:25.641Z,101346.69
2023-05-08T07:58:17.722Z,101363.66
2023-05-08T08:00:47.039Z,101368.41
2023-05-08T08:03:18.432Z,101368.38
2023-05-08T08:05:48.088Z,101366.66
2023-05-08T08:08:17.537Z,101376.78
2023-05-08T08:10:47.047Z,101362.75
2023-05-08T08:13:17.274Z,101363.34
2023-05-08T08:15:46.739Z,101369.69
2023-05-08T08:18:23.360Z,101346.19
2023-05-08T08:20:53.012Z,101341.19
2023-05-08T08:23:22.374Z,101355.13
2023-05-08T08:25:53.204Z,101356.00
2023-05-08T08:28:22.497Z,101359.66
2023-05-08T08:30:51.805Z,101348.88
2023-05-08T08:33:23.197Z,101334.66
2023-05-08T08:35:54.118Z,101328.09
2023-05-08T08:38:23.657Z,101323.69
2023-05-08T08:41:05.901Z,101342.41
2023-05-08T08:43:44.506Z,101331.94
2023-05-08T08:46:26.061Z,101335.16
2023-05-08T08:48:59.877Z,101327.28
2023-05-08T08:51:33.556Z,101334.16
2023-05-08T08:54:08.081Z,101345.44
2023-05-08T08:56:52.250Z,101332.59
2023-05-08T08:59:36.828Z,101319.63
2023-05-08T09:02:17.000Z,101341.53
2023-05-08T09:07:27.441Z,101328.69
2023-05-08T09:09:57.377Z,101346.06
2023-05-08T09:12:26.753Z,101336.63
2023-05-08T09:14:56.087Z,101339.31
2023-05-08T09:17:25.486Z,101327.31
2023-05-08T09:20:17.008Z,101342.03
2023-05-08T09:22:46.648Z,101323.88
2023-05-08T09:25:21.168Z,101326.44
2023-05-08T09:27:50.609Z,101330.66
2023-05-08T09:30:34.822Z,101338.59
2023-05-08T09:33:04.573Z,101331.94
2023-05-08T09:35:45.373Z,101329.41
2023-05-08T09:38:37.175Z,101336.44
2023-05-08T09:41:11.615Z,101313.88
2023-05-08T09:43:41.712Z,101340.66
2023-05-08T09:46:24.121Z,101327.59
2023-05-08T09:48:55.055Z,101326.72
2023-05-08T09:51:33.156Z,101329.34
2023-05-08T09:54:05.533Z,101323.19
2023-05-08T09:56:40.114Z,101308.53
2023-05-08T09:59:25.801Z,101290.44
2023-05-08T10:02:00.554Z,101319.81
2023-05-08T10:04:36.684Z,101314.69
2023-05-08T10:07:13.204Z,101314.75
2023-05-08T10:09:59.745Z,101313.88
2023-05-08T10:12:30.168Z,101311.25
2023-05-08T10:15:00.347Z,101300.00
2023-05-08T10:17:40.637Z,101315.53
2023-05-08T10:20:11.709Z,101325.91
2023-05-08T10:22:46.904Z,101324.97
2023-05-08T10:25:19.966Z,101313.59
2023-05-08T10:27:59.499Z,101318.81
2023-05-08T10:30:29.414Z,101311.06
2023-05-08T10:33:05.193Z,101305.91
2023-05-08T10:35:34.840Z,101305.88
2023-05-08T10:38:07.941Z,101286.00
2023-05-08T10:40:37.578Z,101305.16
2023-05-08T10:43:09.275Z,101303.44
2023-05-08T10:45:39.043Z,101317.34
2023-05-08T10:48:21.931Z,101303.38
2023-05-08T10:51:01.605Z,101283.44
2023-05-08T10:53:39.181Z,101298.06
2023-05-08T10:56:09.119Z,101284.16
2023-05-08T10:58:40.006Z,101291.13
2023-05-08T11:01:21.767Z,101253.00
2023-05-08T11:03:55.370Z,101270.22
2023-05-08T11:06:48.472Z,101290.22
2023-05-08T11:09:31.500Z,101285.13
2023-05-08T11:12:10.804Z,101281.81
2023-05-08T11:14:49.423Z,101277.47
2023-05-08T11:17:26.057Z,101256.63
2023-05-08T11:20:01.791Z,101267.78
2023-05-08T11:22:35.262Z,101257.25
2023-05-08T11:25:13.820Z,101289.84
2023-05-08T11:28:13.709Z,101290.72
2023-05-08T11:30:43.254Z,101247.53
2023-05-08T11:33:22.030Z,101284.72
2023-05-08T11:35:58.966Z,101277.91
2023-05-08T11:38:33.877Z,101286.66
2023-05-08T11:44:21.411Z,101274.75
2023-05-08T11:46:53.190Z,101276.50
2023-05-08T11:49:27.006Z,101279.16
2023-05-08T11:52:05.684Z,101278.31
2023-05-08T11:54:35.482Z,101284.34
2023-05-08T11:57:12.095Z,101277.50
2023-05-08T11:59:43.519Z,101276.59
2023-05-08T12:02:18.431Z,101267.06
2023-05-08T12:04:48.719Z,101272.25
2023-05-08T12:07:18.366Z,101267.00
2023-05-08T12:09:48.889Z,101272.13
2023-05-08T12:12:20.103Z,101280.56
2023-05-08T12:14:51.995Z,101272.81
2023-05-08T12:17:21.853Z,101258.00
2023-05-08T12:20:01.236Z,101266.75
2023-05-08T12:22:35.745Z,101272.00
2023-05-08T12:25:12.631Z,101277.38
2023-05-08T12:27:45.587Z,101249.69
2023-05-08T12:30:17.141Z,101275.56
2023-05-08T12:32:48.295Z,101272.09
2023-05-08T12:35:18.207Z,101259.16
2023-05-08T12:37:48.384Z,101271.28
2023-05-08T12:40:29.441Z,101274.69
2023-05-08T12:43:17.260Z,101268.53
2023-05-08T12:51:40.835Z,101248.47
2023-05-08T12:54:16.082Z,101263.19
2023-05-08T12:56:46.033Z,101228.69
2023-05-08T12:59:15.685Z,101246.16
2023-05-08T13:01:54.343Z,101247.00
2023-05-08T13:04:23.927Z,101235.66
2023-05-08T13:07:07.391Z,101237.38
2023-05-08T13:09:57.467Z,101248.56
2023-05-08T13:12:26.993Z,101252.91
2023-05-08T13:14:56.281Z,101213.16
2023-05-08T13:17:25.718Z,101235.72
2023-05-08T13:19:55.278Z,101240.06
2023-05-08T13:22:31.884Z,101232.34
2023-05-08T13:25:06.364Z,101232.41
2023-05-08T13:27:35.775Z,101241.88
2023-05-08T13:30:05.272Z,101230.59
2023-05-08T13:32:34.897Z,101239.22
2023-05-08T13:35:04.170Z,101233.00
2023-05-08T13:37:35.651Z,101232.03
2023-05-08T13:40:05.259Z,101205.13
2023-05-08T13:42:34.618Z,101225.72
2023-05-08T13:45:04.188Z,101200.34
2023-05-08T13:47:39.861Z,101236.78
2023-05-08T13:50:15.786Z,101231.56
2023-05-08T13:52:47.434Z,101235.88
2023-05-08T13:55:20.766Z,101221.91
2023-05-08T13:57:50.386Z,101235.91
2023-05-08T14:00:20.421Z,101241.16
2023-05-08T14:05:25.829Z,101240.44
2023-05-08T14:08:02.096Z,101230.03
2023-05-08T14:10:31.601Z,101230.00
2023-05-08T14:13:00.923Z,101210.16
2023-05-08T14:15:37.039Z,101235.19
2023-05-08T14:18:07.737Z,101238.56
2023-05-08T14:20:37.169Z,101237.78
2023-05-08T14:23:11.565Z,101231.00
2023-05-08T14:25:46.121Z,101238.88
2023-05-08T14:28:27.663Z,101230.28
2023-05-08T14:31:02.143Z,101237.09
2023-05-08T14:33:31.821Z,101222.31
2023-05-08T14:36:01.156Z,101229.22
2023-05-08T14:41:12.746Z,101230.94
2023-05-08T14:43:42.473Z,101217.00
2023-05-08T14:46:16.922Z,101231.78
2023-05-08T14:48:57.047Z,101207.59
2023-05-08T14:51:26.952Z,101224.00
2023-05-08T14:53:58.712Z,101225.75
2023-05-08T14:56:30.274Z,101224.94
2023-05-08T14:59:10.872Z,101203.25
2023-05-08T15:01:42.849Z,101223.19
2023-05-08T15:04:12.679Z,101223.28
2023-05-08T15:06:42.281Z,101231.09
2023-05-08T15:09:18.681Z,101225.09
2023-05-08T15:11:48.055Z,101217.22
2023-05-08T15:14:17.348Z,101209.38
2023-05-08T15:16:46.860Z,101212.78
2023-05-08T15:19:16.632Z,101203.19
2023-05-08T15:21:45.928Z,101211.78
2023-05-08T15:24:15.627Z,101210.84
2023-05-08T15:26:47.425Z,101205.66
2023-05-08T15:29:21.776Z,101211.66
2023-05-08T15:31:51.211Z,101209.84
2023-05-08T15:34:20.721Z,101212.38
2023-05-08T15:36:55.589Z,101202.75
2023-05-08T15:39:30.134Z,101199.81
2023-05-08T15:42:01.623Z,101217.97
2023-05-08T15:44:42.070Z,101223.00
2023-05-08T15:47:22.474Z,101210.06
2023-05-08T15:49:52.339Z,101191.13
2023-05-08T15:52:22.402Z,101166.75
2023-05-08T15:54:52.448Z,101209.06
2023-05-08T15:57:26.581Z,101202.09
2023-05-08T15:59:56.012Z,101194.22
2023-05-08T16:02:25.618Z,101202.97
2023-05-08T16:05:00.589Z,101209.06
2023-05-08T16:07:30.233Z,101204.06
2023-05-08T16:09:59.672Z,101198.97
2023-05-08T16:12:33.791Z,101208.31
2023-05-08T16:15:05.334Z,101197.69
2023-05-08T16:17:35.002Z,101204.78
2023-05-08T16:20:07.827Z,101215.88
2023-05-08T16:22:37.170Z,101211.94
2023-05-08T16:25:07.182Z,101216.66
2023-05-08T16:27:38.611Z,101211.56
2023-05-08T16:30:10.114Z,101211.56
2023-05-08T16:32:39.659Z,101207.16
2023-05-08T16:35:10.742Z,101212.31
2023-05-08T16:37:45.300Z,101215.00
2023-05-08T16:40:15.110Z,101211.50
2023-05-08T16:42:46.493Z,101216.50
2023-05-08T16:45:20.800Z,101218.03
2023-05-08T16:47:50.269Z,101218.97
2023-05-08T16:50:19.506Z,101220.75
2023-05-08T16:52:48.950Z,101221.56
2023-05-08T16:55:18.548Z,101216.19
2023-05-08T16:57:49.774Z,101236.78
2023-05-08T17:00:21.726Z,101221.06
2023-05-08T17:02:50.854Z,101223.53
2023-05-08T17:05:20.493Z,101229.97
2023-05-08T17:07:50.044Z,101240.88
2023-05-08T17:10:19.332Z,101230.09
2023-05-08T17:12:52.872Z,101238.38
2023-05-08T17:15:23.518Z,101240.59
2023-05-08T17:17:52.811Z,101245.34
2023-05-08T17:20:22.156Z,101252.97
2023-05-08T17:22:51.659Z,101236.16
2023-05-08T17:25:22.066Z,101249.69
2023-05-08T17:27:53.311Z,101255.63
2023-05-08T17:30:23.219Z,101256.19
2023-05-08T17:32:52.867Z,101255.94
2023-05-08T17:35:22.860Z,101239.38
2023-05-08T17:37:52.452Z,101256.50
2023-05-08T17:40:21.781Z,101254.59
2023-05-08T17:42:54.724Z,101259.63
2023-05-08T17:45:24.096Z,101270.47
2023-05-08T17:47:58.336Z,101269.19
2023-05-08T17:50:28.096Z,101268.59
2023-05-08T17:52:57.473Z,101273.91
2023-05-08T17:55:34.307Z,101275.34
2023-05-08T17:58:05.579Z,101283.63
2023-05-08T18:00:41.126Z,101289.47
2023-05-08T18:03:11.815Z,101294.19
2023-05-08T18:08:27.798Z,101283.88
2023-05-08T18:10:57.190Z,101293.25
2023-05-08T18:13:28.887Z,101289.44
2023-05-08T18:15:58.136Z,101289.16
2023-05-08T18:18:27.437Z,101290.09
2023-05-08T18:21:08.653Z,101241.53
2023-05-08T18:23:38.741Z,101293.63
2023-05-08T18:26:09.231Z,101289.78
2023-05-08T18:28:40.490Z,101294.72
2023-05-08T18:31:10.590Z,101293.50
2023-05-08T18:33:39.915Z,101290.59
2023-05-08T18:36:09.555Z,101297.94
2023-05-08T18:38:41.249Z,101296.88
2023-05-08T18:41:10.849Z,101311.56
2023-05-08T18:43:47.665Z,101298.09
2023-05-08T18:46:17.442Z,101297.97
2023-05-08T18:48:46.839Z,101285.44
2023-05-08T18:51:16.145Z,101299.34
2023-05-08T18:53:45.481Z,101298.16
2023-05-08T18:56:15.034Z,101304.81
2023-05-08T18:58:46.279Z,101263.53
2023-05-08T19:01:20.079Z,101262.53
2023-05-08T19:03:49.981Z,101310.78
2023-05-08T19:06:19.935Z,101318.81
2023-05-08T19:08:54.538Z,101310.50
2023-05-08T19:11:24.065Z,101294.47
2023-05-08T19:13:56.100Z,101309.97
2023-05-08T19:16:25.963Z,101322.69
2023-05-08T19:18:55.756Z,101313.78
2023-05-08T19:21:31.647Z,101317.91
2023-05-08T19:24:01.259Z,101320.38
2023-05-08T19:26:30.745Z,101319.34
2023-05-08T19:29:09.651Z,101327.97
2023-05-08T19:31:39.135Z,101277.16
2023-05-08T19:34:08.812Z,101317.03
2023-05-08T19:36:38.202Z,101321.41
2023-05-08T19:41:44.325Z,101325.75
2023-05-08T19:44:15.736Z,101327.34
2023-05-08T19:46:46.538Z,101298.41
2023-05-08T19:49:16.985Z,101325.50
2023-05-08T19:51:48.167Z,101317.00
2023-05-08T19:54:22.528Z,101309.09
2023-05-08T19:56:52.064Z,101304.44
2023-05-08T19:59:23.198Z,101306.09
2023-05-08T20:01:53.397Z,101328.50
2023-05-08T20:04:23.838Z,101289.16
2023-05-08T20:06:53.289Z,101315.88
2023-05-08T20:09:22.614Z,101325.38
2023-05-08T20:11:52.016Z,101328.53
2023-05-08T20:14:23.348Z,101321.09
2023-05-08T20:16:57.169Z,101302.25
2023-05-08T20:19:26.677Z,101312.38
2023-05-08T20:21:56.235Z,101328.63
2023-05-08T20:24:31.222Z,101329.25
2023-05-08T20:27:11.922Z,101330.78
2023-05-08T20:29:43.311Z,101333.00
2023-05-08T20:32:14.420Z,101336.34
2023-05-08T20:34:49.512Z,101321.16
2023-05-08T20:37:23.804Z,101317.84
2023-05-08T20:39:58.088Z,101325.66
2023-05-08T20:42:27.386Z,101337.03
2023-05-08T20:44:58.856Z,101334.53
2023-05-08T20:47:33.629Z,101337.13
2023-05-08T20:50:03.136Z,101338.78
2023-05-08T20:52:35.314Z,101337.31
2023-05-08T20:55:08.219Z,101334.38
2023-05-08T20:57:37.571Z,101342.66
2023-05-08T21:00:10.494Z,101330.97
2023-05-08T21:02:42.005Z,101325.06
2023-05-08T21:05:12.035Z,101335.34
2023-05-08T21:07:42.140Z,101323.88
2023-05-08T21:10:12.382Z,101342.63
2023-05-08T21:12:44.094Z,101327.25
2023-05-08T21:15:20.496Z,101342.09
2023-05-08T21:17:50.136Z,101335.31
2023-05-08T21:20:20.016Z,101341.25
2023-05-08T21:22:49.469Z,101283.50
2023-05-08T21:25:21.007Z,101335.81
2023-05-08T21:27:50.343Z,101331.47
2023-05-08T21:30:21.835Z,101339.28
2023-05-08T21:32:51.669Z,101338.59
2023-05-08T21:35:21.235Z,101336.28
2023-05-08T21:37:54.653Z,101332.00
2023-05-08T21:40:24.697Z,101339.16
2023-05-08T21:42:54.219Z,101334.41
2023-05-08T21:45:25.559Z,101338.28
2023-05-08T21:48:00.434Z,101335.72
2023-05-08T21:50:29.997Z,101342.88
2023-05-08T21:53:04.291Z,101345.59
2023-05-08T21:55:33.671Z,101334.50
2023-05-08T21:58:02.835Z,101329.59
2023-05-08T22:00:34.204Z,101336.16
2023-05-08T22:03:08.687Z,101341.03
2023-05-08T22:05:38.108Z,101350.69
2023-05-08T22:08:08.140Z,101349.13
2023-05-08T22:10:48.460Z,101341.56
2023-05-08T22:13:17.814Z,101347.41
2023-05-08T22:15:49.453Z,101344.84
2023-05-08T22:18:18.811Z,101340.28
2023-05-08T22:20:48.050Z,101348.84
2023-05-08T22:23:17.820Z,101350.50
2023-05-08T22:25:47.074Z,101337.13
2023-05-08T22:30:53.604Z,101343.63
2023-05-08T22:33:23.038Z,101343.56
2023-05-08T22:35:52.597Z,101345.25
2023-05-08T22:38:21.880Z,101347.19
2023-05-08T22:40:52.113Z,101357.56
2023-05-08T22:43:21.661Z,101353.22
2023-05-08T22:45:52.987Z,101352.78
2023-05-08T22:48:22.576Z,101356.75
2023-05-08T22:50:52.766Z,101349.56
2023-05-08T22:53:22.176Z,101348.34
2023-05-08T22:55:51.413Z,101360.22
2023-05-08T22:58:20.772Z,101350.84
2023-05-08T23:00:50.189Z,101317.69
2023-05-08T23:03:27.368Z,101342.78
2023-05-08T23:05:56.517Z,101354.22
2023-05-08T23:08:30.856Z,101355.97
2023-05-08T23:11:00.143Z,101346.56
2023-05-08T23:13:34.610Z,101352.53
2023-05-08T23:16:09.020Z,101344.94
2023-05-08T23:18:40.305Z,101351.06
2023-05-08T23:21:10.393Z,101355.19
2023-05-08T23:23:39.533Z,101354.91
2023-05-08T23:26:08.729Z,101351.09
2023-05-08T23:28:38.726Z,101328.97
2023-05-08T23:31:08.133Z,101356.25
2023-05-08T23:33:44.326Z,101356.50
2023-05-08T23:36:20.356Z,101353.41
2023-05-08T23:38:56.194Z,101370.72
2023-05-08T23:41:25.838Z,101360.31
2023-05-08T23:43:55.433Z,101331.31
2023-05-08T23:46:24.817Z,101358.72
2023-05-08T23:48:56.224Z,101359.09
2023-05-08T23:51:25.697Z,101362.88
2023-05-08T23:53:54.896Z,101349.31
2023-05-08T23:56:24.478Z,101356.72
2023-05-08T23:58:58.842Z,101358.88
